Volkel, Netherlands
Current Conditions -  °F | °C
As of 8:58 AM on Friday 19 Dec 2014 (Local Time) from EHVK Reporting Station
Rain Showers Rain Showers  
Wind Chill: 52°   Ceiling: 1000
Heat Index: 52°   Visibility: 4mi
Dew Point: 50°   Wind: 24mph
Humidity: 94%   Direction: 230°SW
Pressure: 29.77"   Gusts: NA
Location:  51.64°N, 5.65°E
Report Text: EHVK 190758Z AUTO 23021KT 7000 -SHRA FEW007 SCT009 BKN010 11/10 Q1008 GRN 22020G30KT 7000 -RADZ SCT008 OVC010 TEMPO 3000 DZRA SCT006 OVC008
Loading
Personal Weather Stations






























Interactive Weather Map New forecast layout! Learn more

10-Day Weather Forecast

Advertisements
Track Severe Weather on mobile